sensor_id;sensor_type;location;lat;lon;timestamp;temperature;humidity
7502;DHT22;3792;47.740;7.606;2023-09-12T00:00:47;20.00;99.90
7502;DHT22;3792;47.740;7.606;2023-09-12T00:03:14;20.00;99.90
7502;DHT22;3792;47.740;7.606;2023-09-12T00:05:41;20.00;99.90
7502;DHT22;3792;47.740;7.606;2023-09-12T00:08:09;20.00;99.90
7502;DHT22;3792;47.740;7.606;2023-09-12T00:10:36;20.10;99.90
7502;DHT22;3792;47.740;7.606;2023-09-12T00:13:03;20.10;99.90
7502;DHT22;3792;47.740;7.606;2023-09-12T00:15:31;20.00;99.90
7502;DHT22;3792;47.740;7.606;2023-09-12T00:17:58;20.00;99.90
7502;DHT22;3792;47.740;7.606;2023-09-12T00:20:25;20.10;99.90
7502;DHT22;3792;47.740;7.606;2023-09-12T00:22:52;20.10;99.90
7502;DHT22;3792;47.740;7.606;2023-09-12T00:25:21;20.20;99.90
7502;DHT22;3792;47.740;7.606;2023-09-12T00:27:48;20.30;99.90
7502;DHT22;3792;47.740;7.606;2023-09-12T00:30:16;20.20;99.90
7502;DHT22;3792;47.740;7.606;2023-09-12T00:32:43;20.20;99.90
7502;DHT22;3792;47.740;7.606;2023-09-12T00:35:10;20.20;99.90
7502;DHT22;3792;47.740;7.606;2023-09-12T00:37:37;20.20;99.90
7502;DHT22;3792;47.740;7.606;2023-09-12T00:40:05;20.20;99.90
7502;DHT22;3792;47.740;7.606;2023-09-12T00:42:33;20.40;99.90
7502;DHT22;3792;47.740;7.606;2023-09-12T00:45:00;20.40;99.90
7502;DHT22;3792;47.740;7.606;2023-09-12T00:47:29;20.40;99.90
7502;DHT22;3792;47.740;7.606;2023-09-12T00:49:57;20.50;99.90
7502;DHT22;3792;47.740;7.606;2023-09-12T00:52:25;20.40;99.90
7502;DHT22;3792;47.740;7.606;2023-09-12T00:54:53;20.20;99.90
7502;DHT22;3792;47.740;7.606;2023-09-12T00:57:22;20.20;99.90
7502;DHT22;3792;47.740;7.606;2023-09-12T00:59:51;20.10;99.90
7502;DHT22;3792;47.740;7.606;2023-09-12T01:02:18;20.10;99.90
7502;DHT22;3792;47.740;7.606;2023-09-12T01:04:46;20.10;99.90
7502;DHT22;3792;47.740;7.606;2023-09-12T01:07:14;20.20;99.90
7502;DHT22;3792;47.740;7.606;2023-09-12T01:09:41;20.20;99.90
7502;DHT22;3792;47.740;7.606;2023-09-12T01:12:08;20.30;99.90
7502;DHT22;3792;47.740;7.606;2023-09-12T01:14:40;20.20;99.90
7502;DHT22;3792;47.740;7.606;2023-09-12T01:17:08;20.10;99.90
7502;DHT22;3792;47.740;7.606;2023-09-12T01:19:35;20.10;99.90
7502;DHT22;3792;47.740;7.606;2023-09-12T01:25:24;20.10;99.90
7502;DHT22;3792;47.740;7.606;2023-09-12T01:27:57;20.10;99.90
7502;DHT22;3792;47.740;7.606;2023-09-12T01:30:28;20.00;99.90
7502;DHT22;3792;47.740;7.606;2023-09-12T01:32:58;20.10;99.90
7502;DHT22;3792;47.740;7.606;2023-09-12T01:35:26;20.20;99.90
7502;DHT22;3792;47.740;7.606;2023-09-12T01:37:53;20.20;99.90
7502;DHT22;3792;47.740;7.606;2023-09-12T01:40:27;20.30;99.90
7502;DHT22;3792;47.740;7.606;2023-09-12T01:42:59;20.40;99.90
7502;DHT22;3792;47.740;7.606;2023-09-12T01:45:27;20.50;99.90
7502;DHT22;3792;47.740;7.606;2023-09-12T01:47:55;20.60;99.90
7502;DHT22;3792;47.740;7.606;2023-09-12T01:50:23;20.60;99.90
7502;DHT22;3792;47.740;7.606;2023-09-12T01:52:53;20.60;99.90
7502;DHT22;3792;47.740;7.606;2023-09-12T01:55:20;20.60;99.90
7502;DHT22;3792;47.740;7.606;2023-09-12T01:57:48;20.60;99.90
7502;DHT22;3792;47.740;7.606;2023-09-12T02:00:17;20.50;99.90
7502;DHT22;3792;47.740;7.606;2023-09-12T02:02:45;20.60;99.90
7502;DHT22;3792;47.740;7.606;2023-09-12T02:05:15;20.60;99.90
7502;DHT22;3792;47.740;7.606;2023-09-12T02:07:44;20.70;99.90
7502;DHT22;3792;47.740;7.606;2023-09-12T02:10:12;20.90;99.90
7502;DHT22;3792;47.740;7.606;2023-09-12T02:12:39;20.90;99.90
7502;DHT22;3792;47.740;7.606;2023-09-12T02:15:08;21.00;99.90
7502;DHT22;3792;47.740;7.606;2023-09-12T02:17:36;20.90;99.90
7502;DHT22;3792;47.740;7.606;2023-09-12T02:20:06;20.80;99.90
7502;DHT22;3792;47.740;7.606;2023-09-12T02:22:33;20.70;99.90
7502;DHT22;3792;47.740;7.606;2023-09-12T02:25:00;20.60;99.90
7502;DHT22;3792;47.740;7.606;2023-09-12T02:27:28;20.70;99.90
7502;DHT22;3792;47.740;7.606;2023-09-12T02:29:55;20.70;99.90
7502;DHT22;3792;47.740;7.606;2023-09-12T02:32:22;20.80;99.90
7502;DHT22;3792;47.740;7.606;2023-09-12T02:34:51;20.80;99.90
7502;DHT22;3792;47.740;7.606;2023-09-12T02:37:19;20.70;99.90
7502;DHT22;3792;47.740;7.606;2023-09-12T02:39:45;20.70;99.90
7502;DHT22;3792;47.740;7.606;2023-09-12T02:42:12;20.70;99.90
7502;DHT22;3792;47.740;7.606;2023-09-12T02:44:39;20.70;99.90
7502;DHT22;3792;47.740;7.606;2023-09-12T02:47:06;20.70;99.90
7502;DHT22;3792;47.740;7.606;2023-09-12T02:49:33;20.70;99.90
7502;DHT22;3792;47.740;7.606;2023-09-12T02:52:02;20.60;99.90
7502;DHT22;3792;47.740;7.606;2023-09-12T02:54:29;20.60;99.90
7502;DHT22;3792;47.740;7.606;2023-09-12T02:56:56;20.60;99.90
7502;DHT22;3792;47.740;7.606;2023-09-12T02:59:23;20.70;99.90
7502;DHT22;3792;47.740;7.606;2023-09-12T03:01:50;20.70;99.90
7502;DHT22;3792;47.740;7.606;2023-09-12T03:04:17;20.70;99.90
7502;DHT22;3792;47.740;7.606;2023-09-12T03:06:44;20.70;99.90
7502;DHT22;3792;47.740;7.606;2023-09-12T03:09:13;20.70;99.90
7502;DHT22;3792;47.740;7.606;2023-09-12T03:11:42;20.60;99.90
7502;DHT22;3792;47.740;7.606;2023-09-12T03:14:09;20.70;99.90
7502;DHT22;3792;47.740;7.606;2023-09-12T03:16:36;20.70;99.90
7502;DHT22;3792;47.740;7.606;2023-09-12T03:19:04;20.70;99.90
7502;DHT22;3792;47.740;7.606;2023-09-12T03:21:31;20.80;99.90
7502;DHT22;3792;47.740;7.606;2023-09-12T03:23:58;20.80;99.90
7502;DHT22;3792;47.740;7.606;2023-09-12T03:26:26;20.80;99.90
7502;DHT22;3792;47.740;7.606;2023-09-12T03:28:54;20.80;99.90
7502;DHT22;3792;47.740;7.606;2023-09-12T03:31:21;20.70;99.90
7502;DHT22;3792;47.740;7.606;2023-09-12T03:33:48;20.70;99.90
7502;DHT22;3792;47.740;7.606;2023-09-12T03:36:16;20.70;99.90
7502;DHT22;3792;47.740;7.606;2023-09-12T03:38:43;20.60;99.90
7502;DHT22;3792;47.740;7.606;2023-09-12T03:41:10;20.60;99.90
7502;DHT22;3792;47.740;7.606;2023-09-12T03:43:39;20.70;99.90
7502;DHT22;3792;47.740;7.606;2023-09-12T03:46:06;20.70;99.90
7502;DHT22;3792;47.740;7.606;2023-09-12T03:48:33;20.80;99.90
7502;DHT22;3792;47.740;7.606;2023-09-12T03:51:02;20.70;99.90
7502;DHT22;3792;47.740;7.606;2023-09-12T03:53:30;20.60;99.90
7502;DHT22;3792;47.740;7.606;2023-09-12T03:55:58;20.60;99.90
7502;DHT22;3792;47.740;7.606;2023-09-12T03:58:26;20.60;99.90
7502;DHT22;3792;47.740;7.606;2023-09-12T04:00:54;20.60;99.90
7502;DHT22;3792;47.740;7.606;2023-09-12T04:03:21;20.60;99.90
7502;DHT22;3792;47.740;7.606;2023-09-12T04:05:49;20.60;99.90
7502;DHT22;3792;47.740;7.606;2023-09-12T04:08:16;20.60;99.90
7502;DHT22;3792;47.740;7.606;2023-09-12T04:10:43;20.70;99.90
7502;DHT22;3792;47.740;7.606;2023-09-12T04:13:10;20.70;99.90
7502;DHT22;3792;47.740;7.606;2023-09-12T04:15:38;20.70;99.90
7502;DHT22;3792;47.740;7.606;2023-09-12T04:18:06;20.80;99.90
7502;DHT22;3792;47.740;7.606;2023-09-12T04:20:33;20.80;99.90
7502;DHT22;3792;47.740;7.606;2023-09-12T04:23:01;20.80;99.90
7502;DHT22;3792;47.740;7.606;2023-09-12T04:25:29;20.70;99.90
7502;DHT22;3792;47.740;7.606;2023-09-12T04:27:56;20.70;99.90
7502;DHT22;3792;47.740;7.606;2023-09-12T04:30:23;20.70;99.90
7502;DHT22;3792;47.740;7.606;2023-09-12T04:32:50;20.70;99.90
7502;DHT22;3792;47.740;7.606;2023-09-12T04:35:19;20.60;99.90
7502;DHT22;3792;47.740;7.606;2023-09-12T04:37:46;20.60;99.90
7502;DHT22;3792;47.740;7.606;2023-09-12T04:40:13;20.60;99.90
7502;DHT22;3792;47.740;7.606;2023-09-12T04:42:41;20.60;99.90
7502;DHT22;3792;47.740;7.606;2023-09-12T04:45:09;20.60;99.90
7502;DHT22;3792;47.740;7.606;2023-09-12T04:47:36;20.70;99.90
7502;DHT22;3792;47.740;7.606;2023-09-12T04:50:03;20.70;99.90
7502;DHT22;3792;47.740;7.606;2023-09-12T04:52:32;20.60;99.90
7502;DHT22;3792;47.740;7.606;2023-09-12T04:54:59;20.60;99.90
7502;DHT22;3792;47.740;7.606;2023-09-12T04:57:26;20.50;99.90
7502;DHT22;3792;47.740;7.606;2023-09-12T04:59:56;20.30;99.90
7502;DHT22;3792;47.740;7.606;2023-09-12T05:02:24;20.20;99.90
7502;DHT22;3792;47.740;7.606;2023-09-12T05:04:51;20.10;99.90
7502;DHT22;3792;47.740;7.606;2023-09-12T05:07:18;20.10;99.90
7502;DHT22;3792;47.740;7.606;2023-09-12T05:09:49;20.10;99.90
7502;DHT22;3792;47.740;7.606;2023-09-12T05:12:19;20.20;99.90
7502;DHT22;3792;47.740;7.606;2023-09-12T05:14:46;20.10;99.90
7502;DHT22;3792;47.740;7.606;2023-09-12T05:17:13;20.10;99.90
7502;DHT22;3792;47.740;7.606;2023-09-12T05:19:40;20.10;99.90
7502;DHT22;3792;47.740;7.606;2023-09-12T05:22:08;20.10;99.90
7502;DHT22;3792;47.740;7.606;2023-09-12T05:24:35;20.20;99.90
7502;DHT22;3792;47.740;7.606;2023-09-12T05:27:04;20.30;99.90
7502;DHT22;3792;47.740;7.606;2023-09-12T05:29:31;20.40;99.90
7502;DHT22;3792;47.740;7.606;2023-09-12T05:31:58;20.40;99.90
7502;DHT22;3792;47.740;7.606;2023-09-12T05:34:25;20.40;99.90
7502;DHT22;3792;47.740;7.606;2023-09-12T05:36:52;20.40;99.90
7502;DHT22;3792;47.740;7.606;2023-09-12T05:39:20;20.50;99.90
7502;DHT22;3792;47.740;7.606;2023-09-12T05:41:47;20.60;99.90
7502;DHT22;3792;47.740;7.606;2023-09-12T05:44:15;20.70;99.90
7502;DHT22;3792;47.740;7.606;2023-09-12T05:46:44;20.70;99.90
7502;DHT22;3792;47.740;7.606;2023-09-12T05:49:11;20.70;99.90
7502;DHT22;3792;47.740;7.606;2023-09-12T05:51:38;20.70;99.90
7502;DHT22;3792;47.740;7.606;2023-09-12T05:54:06;20.70;99.90
7502;DHT22;3792;47.740;7.606;2023-09-12T05:56:33;20.70;99.90
7502;DHT22;3792;47.740;7.606;2023-09-12T05:59:00;20.60;99.90
7502;DHT22;3792;47.740;7.606;2023-09-12T06:01:29;20.60;99.90
7502;DHT22;3792;47.740;7.606;2023-09-12T06:03:56;20.60;99.90
7502;DHT22;3792;47.740;7.606;2023-09-12T06:06:23;20.60;99.90
7502;DHT22;3792;47.740;7.606;2023-09-12T06:08:50;20.70;99.90
7502;DHT22;3792;47.740;7.606;2023-09-12T06:11:19;20.80;99.90
7502;DHT22;3792;47.740;7.606;2023-09-12T06:13:46;20.80;99.90
7502;DHT22;3792;47.740;7.606;2023-09-12T06:16:13;20.90;99.90
7502;DHT22;3792;47.740;7.606;2023-09-12T06:18:41;21.10;99.90
7502;DHT22;3792;47.740;7.606;2023-09-12T06:21:08;21.20;99.90
7502;DHT22;3792;47.740;7.606;2023-09-12T06:23:35;21.30;99.90
7502;DHT22;3792;47.740;7.606;2023-09-12T06:26:03;21.40;99.90
7502;DHT22;3792;47.740;7.606;2023-09-12T06:28:30;21.50;99.90
7502;DHT22;3792;47.740;7.606;2023-09-12T06:30:57;21.40;99.90
7502;DHT22;3792;47.740;7.606;2023-09-12T06:33:25;21.40;99.90
7502;DHT22;3792;47.740;7.606;2023-09-12T06:35:54;21.40;99.90
7502;DHT22;3792;47.740;7.606;2023-09-12T06:38:22;21.50;99.90
7502;DHT22;3792;47.740;7.606;2023-09-12T06:40:49;21.40;99.90
7502;DHT22;3792;47.740;7.606;2023-09-12T06:43:17;21.40;99.90
7502;DHT22;3792;47.740;7.606;2023-09-12T06:45:45;21.50;99.90
7502;DHT22;3792;47.740;7.606;2023-09-12T06:48:12;21.50;99.90
7502;DHT22;3792;47.740;7.606;2023-09-12T06:50:39;21.50;99.90
7502;DHT22;3792;47.740;7.606;2023-09-12T06:53:07;21.50;99.90
7502;DHT22;3792;47.740;7.606;2023-09-12T06:55:35;21.50;99.90
7502;DHT22;3792;47.740;7.606;2023-09-12T06:58:03;21.50;99.90
7502;DHT22;3792;47.740;7.606;2023-09-12T07:00:30;21.50;99.90
7502;DHT22;3792;47.740;7.606;2023-09-12T07:02:57;21.50;99.90
7502;DHT22;3792;47.740;7.606;2023-09-12T07:05:24;21.50;99.90
7502;DHT22;3792;47.740;7.606;2023-09-12T07:07:52;21.50;99.90
7502;DHT22;3792;47.740;7.606;2023-09-12T07:10:21;21.50;99.90
7502;DHT22;3792;47.740;7.606;2023-09-12T07:12:48;21.50;99.90
7502;DHT22;3792;47.740;7.606;2023-09-12T07:15:16;21.60;99.90
7502;DHT22;3792;47.740;7.606;2023-09-12T07:17:43;21.70;99.90
7502;DHT22;3792;47.740;7.606;2023-09-12T07:20:11;21.90;99.90
7502;DHT22;3792;47.740;7.606;2023-09-12T07:22:38;22.10;99.90
7502;DHT22;3792;47.740;7.606;2023-09-12T07:25:07;22.30;99.90
7502;DHT22;3792;47.740;7.606;2023-09-12T07:27:36;22.50;99.90
7502;DHT22;3792;47.740;7.606;2023-09-12T07:30:04;22.70;99.90
7502;DHT22;3792;47.740;7.606;2023-09-12T07:32:31;22.90;99.90
7502;DHT22;3792;47.740;7.606;2023-09-12T07:34:58;23.00;99.90
7502;DHT22;3792;47.740;7.606;2023-09-12T07:37:25;23.20;99.90
7502;DHT22;3792;47.740;7.606;2023-09-12T07:39:52;23.40;99.90
7502;DHT22;3792;47.740;7.606;2023-09-12T07:42:22;23.50;99.90
7502;DHT22;3792;47.740;7.606;2023-09-12T07:44:51;23.70;99.90
7502;DHT22;3792;47.740;7.606;2023-09-12T07:47:18;23.80;99.90
7502;DHT22;3792;47.740;7.606;2023-09-12T07:49:45;23.90;99.90
7502;DHT22;3792;47.740;7.606;2023-09-12T07:52:12;24.00;99.90
7502;DHT22;3792;47.740;7.606;2023-09-12T07:54:39;24.20;99.90
7502;DHT22;3792;47.740;7.606;2023-09-12T07:57:06;24.40;99.90
7502;DHT22;3792;47.740;7.606;2023-09-12T07:59:34;24.50;99.90
7502;DHT22;3792;47.740;7.606;2023-09-12T08:02:03;24.80;99.90
7502;DHT22;3792;47.740;7.606;2023-09-12T08:04:30;24.90;99.90
7502;DHT22;3792;47.740;7.606;2023-09-12T08:06:57;25.00;99.90
7502;DHT22;3792;47.740;7.606;2023-09-12T08:09:28;25.20;99.90
7502;DHT22;3792;47.740;7.606;2023-09-12T08:12:11;25.40;99.90
7502;DHT22;3792;47.740;7.606;2023-09-12T08:14:38;25.50;99.90
7502;DHT22;3792;47.740;7.606;2023-09-12T08:17:07;25.70;99.90
7502;DHT22;3792;47.740;7.606;2023-09-12T08:19:34;25.90;99.90
7502;DHT22;3792;47.740;7.606;2023-09-12T08:22:01;26.00;99.90
7502;DHT22;3792;47.740;7.606;2023-09-12T08:24:28;26.20;99.90
7502;DHT22;3792;47.740;7.606;2023-09-12T08:26:55;26.20;99.90
7502;DHT22;3792;47.740;7.606;2023-09-12T08:29:22;26.10;99.90
7502;DHT22;3792;47.740;7.606;2023-09-12T08:31:50;26.10;99.90
7502;DHT22;3792;47.740;7.606;2023-09-12T08:34:20;26.10;99.90
7502;DHT22;3792;47.740;7.606;2023-09-12T08:36:47;26.20;99.90
7502;DHT22;3792;47.740;7.606;2023-09-12T08:39:16;26.40;99.90
7502;DHT22;3792;47.740;7.606;2023-09-12T08:41:43;26.60;99.90
7502;DHT22;3792;47.740;7.606;2023-09-12T08:44:12;26.60;99.90
7502;DHT22;3792;47.740;7.606;2023-09-12T08:46:40;26.80;99.90
7502;DHT22;3792;47.740;7.606;2023-09-12T08:49:08;26.90;99.90
7502;DHT22;3792;47.740;7.606;2023-09-12T08:51:38;27.10;99.90
7502;DHT22;3792;47.740;7.606;2023-09-12T08:54:06;27.20;98.80
7502;DHT22;3792;47.740;7.606;2023-09-12T08:56:36;27.40;97.40
7502;DHT22;3792;47.740;7.606;2023-09-12T08:59:04;27.50;97.00
7502;DHT22;3792;47.740;7.606;2023-09-12T09:01:32;27.70;96.50
7502;DHT22;3792;47.740;7.606;2023-09-12T09:04:01;27.80;95.80
7502;DHT22;3792;47.740;7.606;2023-09-12T09:06:30;27.90;96.10
7502;DHT22;3792;47.740;7.606;2023-09-12T09:09:00;28.10;96.20
7502;DHT22;3792;47.740;7.606;2023-09-12T09:11:31;28.20;95.40
7502;DHT22;3792;47.740;7.606;2023-09-12T09:13:58;28.20;95.40
7502;DHT22;3792;47.740;7.606;2023-09-12T09:16:25;28.10;95.70
7502;DHT22;3792;47.740;7.606;2023-09-12T09:18:53;28.20;95.70
7502;DHT22;3792;47.740;7.606;2023-09-12T09:21:21;28.10;96.50
7502;DHT22;3792;47.740;7.606;2023-09-12T09:23:50;28.10;96.80
7502;DHT22;3792;47.740;7.606;2023-09-12T09:26:19;28.00;95.20
7502;DHT22;3792;47.740;7.606;2023-09-12T09:29:00;27.90;95.30
7502;DHT22;3792;47.740;7.606;2023-09-12T09:31:28;28.10;93.60
7502;DHT22;3792;47.740;7.606;2023-09-12T09:33:58;28.30;93.40
7502;DHT22;3792;47.740;7.606;2023-09-12T09:36:27;28.60;93.70
7502;DHT22;3792;47.740;7.606;2023-09-12T09:38:55;28.80;93.60
7502;DHT22;3792;47.740;7.606;2023-09-12T09:41:26;29.00;93.40
7502;DHT22;3792;47.740;7.606;2023-09-12T09:43:53;29.30;93.10
7502;DHT22;3792;47.740;7.606;2023-09-12T09:46:20;29.40;92.50
7502;DHT22;3792;47.740;7.606;2023-09-12T09:48:51;29.40;92.70
7502;DHT22;3792;47.740;7.606;2023-09-12T09:51:18;29.60;91.20
7502;DHT22;3792;47.740;7.606;2023-09-12T09:53:45;29.60;90.90
7502;DHT22;3792;47.740;7.606;2023-09-12T09:56:14;29.70;91.70
7502;DHT22;3792;47.740;7.606;2023-09-12T09:58:48;29.80;91.60
7502;DHT22;3792;47.740;7.606;2023-09-12T10:01:18;29.70;91.60
7502;DHT22;3792;47.740;7.606;2023-09-12T10:03:46;29.50;85.60
7502;DHT22;3792;47.740;7.606;2023-09-12T10:06:15;29.70;86.30
7502;DHT22;3792;47.740;7.606;2023-09-12T10:08:44;29.70;84.70
7502;DHT22;3792;47.740;7.606;2023-09-12T10:11:14;29.80;82.90
7502;DHT22;3792;47.740;7.606;2023-09-12T10:13:49;29.90;80.10
7502;DHT22;3792;47.740;7.606;2023-09-12T10:16:16;30.00;79.60
7502;DHT22;3792;47.740;7.606;2023-09-12T10:18:50;30.10;79.00
7502;DHT22;3792;47.740;7.606;2023-09-12T10:21:27;30.30;79.10
7502;DHT22;3792;47.740;7.606;2023-09-12T10:23:56;30.30;79.80
7502;DHT22;3792;47.740;7.606;2023-09-12T10:26:25;30.20;77.60
7502;DHT22;3792;47.740;7.606;2023-09-12T10:28:54;30.10;78.10
7502;DHT22;3792;47.740;7.606;2023-09-12T10:31:22;30.10;79.90
7502;DHT22;3792;47.740;7.606;2023-09-12T10:33:51;30.10;81.40
7502;DHT22;3792;47.740;7.606;2023-09-12T10:36:19;30.30;81.60
7502;DHT22;3792;47.740;7.606;2023-09-12T10:38:48;30.50;81.70
7502;DHT22;3792;47.740;7.606;2023-09-12T10:41:15;30.50;81.20
7502;DHT22;3792;47.740;7.606;2023-09-12T10:43:44;30.60;79.60
7502;DHT22;3792;47.740;7.606;2023-09-12T10:46:19;30.80;80.80
7502;DHT22;3792;47.740;7.606;2023-09-12T10:48:47;31.10;80.50
7502;DHT22;3792;47.740;7.606;2023-09-12T10:51:16;31.20;79.20
7502;DHT22;3792;47.740;7.606;2023-09-12T10:53:47;31.40;77.00
7502;DHT22;3792;47.740;7.606;2023-09-12T10:56:18;31.40;76.60
7502;DHT22;3792;47.740;7.606;2023-09-12T10:59:12;31.40;75.90
7502;DHT22;3792;47.740;7.606;2023-09-12T11:01:42;31.50;74.00
7502;DHT22;3792;47.740;7.606;2023-09-12T11:04:41;31.50;72.20
7502;DHT22;3792;47.740;7.606;2023-09-12T11:07:32;31.60;71.40
7502;DHT22;3792;47.740;7.606;2023-09-12T11:10:19;31.70;70.60
7502;DHT22;3792;47.740;7.606;2023-09-12T11:12:48;31.80;71.90
7502;DHT22;3792;47.740;7.606;2023-09-12T11:15:16;32.00;73.30
7502;DHT22;3792;47.740;7.606;2023-09-12T11:17:45;32.10;72.20
7502;DHT22;3792;47.740;7.606;2023-09-12T11:20:13;32.20;72.30
7502;DHT22;3792;47.740;7.606;2023-09-12T11:22:42;32.30;72.20
7502;DHT22;3792;47.740;7.606;2023-09-12T11:25:20;32.40;71.00
7502;DHT22;3792;47.740;7.606;2023-09-12T11:28:03;32.20;69.50
7502;DHT22;3792;47.740;7.606;2023-09-12T11:30:31;32.20;71.60
7502;DHT22;3792;47.740;7.606;2023-09-12T11:32:59;32.40;72.50
7502;DHT22;3792;47.740;7.606;2023-09-12T11:35:36;32.50;72.10
7502;DHT22;3792;47.740;7.606;2023-09-12T11:38:03;32.20;71.10
7502;DHT22;3792;47.740;7.606;2023-09-12T11:40:42;32.20;71.40
7502;DHT22;3792;47.740;7.606;2023-09-12T11:43:20;32.40;73.00
7502;DHT22;3792;47.740;7.606;2023-09-12T11:45:49;32.80;71.80
7502;DHT22;3792;47.740;7.606;2023-09-12T11:48:18;33.30;68.70
7502;DHT22;3792;47.740;7.606;2023-09-12T11:50:51;33.40;71.90
7502;DHT22;3792;47.740;7.606;2023-09-12T11:53:21;33.80;71.90
7502;DHT22;3792;47.740;7.606;2023-09-12T11:55:53;33.90;72.60
7502;DHT22;3792;47.740;7.606;2023-09-12T11:58:21;33.60;70.30
7502;DHT22;3792;47.740;7.606;2023-09-12T12:00:51;33.90;69.60
7502;DHT22;3792;47.740;7.606;2023-09-12T12:03:21;33.90;64.40
7502;DHT22;3792;47.740;7.606;2023-09-12T12:05:48;34.10;62.60
7502;DHT22;3792;47.740;7.606;2023-09-12T12:08:17;34.10;62.60
7502;DHT22;3792;47.740;7.606;2023-09-12T12:10:44;34.30;62.30
7502;DHT22;3792;47.740;7.606;2023-09-12T12:13:17;34.40;61.50
7502;DHT22;3792;47.740;7.606;2023-09-12T12:15:44;34.30;60.00
7502;DHT22;3792;47.740;7.606;2023-09-12T12:18:12;34.20;59.70
7502;DHT22;3792;47.740;7.606;2023-09-12T12:20:40;34.10;61.90
7502;DHT22;3792;47.740;7.606;2023-09-12T12:23:07;34.30;60.30
7502;DHT22;3792;47.740;7.606;2023-09-12T12:25:35;34.40;59.80
7502;DHT22;3792;47.740;7.606;2023-09-12T12:28:02;34.40;62.20
7502;DHT22;3792;47.740;7.606;2023-09-12T12:30:31;34.40;60.70
7502;DHT22;3792;47.740;7.606;2023-09-12T12:33:01;34.60;59.40
7502;DHT22;3792;47.740;7.606;2023-09-12T12:35:28;34.50;59.80
7502;DHT22;3792;47.740;7.606;2023-09-12T12:37:57;34.40;59.70
7502;DHT22;3792;47.740;7.606;2023-09-12T12:40:24;34.20;58.20
7502;DHT22;3792;47.740;7.606;2023-09-12T12:42:51;34.50;58.50
7502;DHT22;3792;47.740;7.606;2023-09-12T12:45:20;34.60;58.70
7502;DHT22;3792;47.740;7.606;2023-09-12T12:47:51;34.30;58.40
7502;DHT22;3792;47.740;7.606;2023-09-12T12:50:18;34.20;58.10
7502;DHT22;3792;47.740;7.606;2023-09-12T12:52:47;34.30;58.50
7502;DHT22;3792;47.740;7.606;2023-09-12T12:55:16;34.40;58.80
7502;DHT22;3792;47.740;7.606;2023-09-12T12:57:45;34.20;59.30
7502;DHT22;3792;47.740;7.606;2023-09-12T13:00:15;33.90;59.90
7502;DHT22;3792;47.740;7.606;2023-09-12T13:02:44;33.70;59.20
7502;DHT22;3792;47.740;7.606;2023-09-12T13:05:25;33.30;59.00
7502;DHT22;3792;47.740;7.606;2023-09-12T13:07:53;33.00;60.30
7502;DHT22;3792;47.740;7.606;2023-09-12T13:10:23;32.80;60.30
7502;DHT22;3792;47.740;7.606;2023-09-12T13:12:50;33.10;60.60
7502;DHT22;3792;47.740;7.606;2023-09-12T13:15:18;33.50;59.30
7502;DHT22;3792;47.740;7.606;2023-09-12T13:17:46;33.80;59.60
7502;DHT22;3792;47.740;7.606;2023-09-12T13:20:13;34.00;57.90
7502;DHT22;3792;47.740;7.606;2023-09-12T13:22:40;34.20;56.60
7502;DHT22;3792;47.740;7.606;2023-09-12T13:25:09;34.30;55.40
7502;DHT22;3792;47.740;7.606;2023-09-12T13:27:38;34.20;54.00
7502;DHT22;3792;47.740;7.606;2023-09-12T13:30:06;34.40;53.20
7502;DHT22;3792;47.740;7.606;2023-09-12T13:32:34;34.40;52.50
7502;DHT22;3792;47.740;7.606;2023-09-12T13:35:01;34.40;52.80
7502;DHT22;3792;47.740;7.606;2023-09-12T13:37:28;34.40;53.70
7502;DHT22;3792;47.740;7.606;2023-09-12T13:39:56;34.40;53.00
7502;DHT22;3792;47.740;7.606;2023-09-12T13:42:24;34.60;53.20
7502;DHT22;3792;47.740;7.606;2023-09-12T13:44:57;34.50;51.70
7502;DHT22;3792;47.740;7.606;2023-09-12T13:47:24;34.60;51.70
7502;DHT22;3792;47.740;7.606;2023-09-12T13:49:52;34.60;51.80
7502;DHT22;3792;47.740;7.606;2023-09-12T13:52:20;35.00;53.30
7502;DHT22;3792;47.740;7.606;2023-09-12T13:54:47;34.90;51.00
7502;DHT22;3792;47.740;7.606;2023-09-12T13:57:16;34.90;50.90
7502;DHT22;3792;47.740;7.606;2023-09-12T13:59:43;34.90;50.60
7502;DHT22;3792;47.740;7.606;2023-09-12T14:02:11;34.80;50.10
7502;DHT22;3792;47.740;7.606;2023-09-12T14:04:39;34.80;48.80
7502;DHT22;3792;47.740;7.606;2023-09-12T14:07:06;34.90;47.00
7502;DHT22;3792;47.740;7.606;2023-09-12T14:09:33;34.90;50.10
7502;DHT22;3792;47.740;7.606;2023-09-12T14:12:00;34.90;48.30
7502;DHT22;3792;47.740;7.606;2023-09-12T14:14:27;34.90;49.80
7502;DHT22;3792;47.740;7.606;2023-09-12T14:16:54;35.00;49.30
7502;DHT22;3792;47.740;7.606;2023-09-12T14:19:22;34.70;47.60
7502;DHT22;3792;47.740;7.606;2023-09-12T14:21:49;34.50;47.90
7502;DHT22;3792;47.740;7.606;2023-09-12T14:24:16;34.30;48.40
7502;DHT22;3792;47.740;7.606;2023-09-12T14:26:43;34.50;49.40
7502;DHT22;3792;47.740;7.606;2023-09-12T14:29:10;34.60;49.50
7502;DHT22;3792;47.740;7.606;2023-09-12T14:31:37;34.70;50.60
7502;DHT22;3792;47.740;7.606;2023-09-12T14:34:04;34.70;51.10
7502;DHT22;3792;47.740;7.606;2023-09-12T14:36:35;34.70;51.50
7502;DHT22;3792;47.740;7.606;2023-09-12T14:39:02;34.70;51.50
7502;DHT22;3792;47.740;7.606;2023-09-12T14:41:29;34.70;51.70
7502;DHT22;3792;47.740;7.606;2023-09-12T14:43:56;34.70;52.70
7502;DHT22;3792;47.740;7.606;2023-09-12T14:46:23;34.40;50.90
7502;DHT22;3792;47.740;7.606;2023-09-12T14:48:50;34.10;52.10
7502;DHT22;3792;47.740;7.606;2023-09-12T14:51:17;33.90;53.30
7502;DHT22;3792;47.740;7.606;2023-09-12T14:53:47;33.70;54.40
7502;DHT22;3792;47.740;7.606;2023-09-12T14:56:15;33.70;54.50
7502;DHT22;3792;47.740;7.606;2023-09-12T14:58:43;34.00;55.20
7502;DHT22;3792;47.740;7.606;2023-09-12T15:01:10;34.10;53.90
7502;DHT22;3792;47.740;7.606;2023-09-12T15:03:37;34.20;53.70
7502;DHT22;3792;47.740;7.606;2023-09-12T15:06:05;34.40;55.20
7502;DHT22;3792;47.740;7.606;2023-09-12T15:08:32;34.40;54.20
7502;DHT22;3792;47.740;7.606;2023-09-12T15:11:03;34.50;54.90
7502;DHT22;3792;47.740;7.606;2023-09-12T15:13:31;34.30;54.40
7502;DHT22;3792;47.740;7.606;2023-09-12T15:15:58;34.40;54.50
7502;DHT22;3792;47.740;7.606;2023-09-12T15:18:25;34.30;55.10
7502;DHT22;3792;47.740;7.606;2023-09-12T15:20:52;34.30;54.60
7502;DHT22;3792;47.740;7.606;2023-09-12T15:23:20;34.40;54.70
7502;DHT22;3792;47.740;7.606;2023-09-12T15:25:48;34.30;54.20
7502;DHT22;3792;47.740;7.606;2023-09-12T15:28:17;34.30;55.10
7502;DHT22;3792;47.740;7.606;2023-09-12T15:30:44;34.10;55.40
7502;DHT22;3792;47.740;7.606;2023-09-12T15:33:11;34.10;55.40
7502;DHT22;3792;47.740;7.606;2023-09-12T15:35:39;33.90;57.10
7502;DHT22;3792;47.740;7.606;2023-09-12T15:38:06;33.90;58.70
7502;DHT22;3792;47.740;7.606;2023-09-12T15:40:33;34.10;57.40
7502;DHT22;3792;47.740;7.606;2023-09-12T15:43:00;34.10;56.90
7502;DHT22;3792;47.740;7.606;2023-09-12T15:45:29;34.10;57.50
7502;DHT22;3792;47.740;7.606;2023-09-12T15:47:56;34.10;56.20
7502;DHT22;3792;47.740;7.606;2023-09-12T15:50:23;33.90;56.80
7502;DHT22;3792;47.740;7.606;2023-09-12T15:52:51;33.80;56.80
7502;DHT22;3792;47.740;7.606;2023-09-12T15:55:18;33.70;58.50
7502;DHT22;3792;47.740;7.606;2023-09-12T15:57:45;33.80;58.50
7502;DHT22;3792;47.740;7.606;2023-09-12T16:00:13;33.90;58.70
7502;DHT22;3792;47.740;7.606;2023-09-12T16:02:42;34.00;58.40
7502;DHT22;3792;47.740;7.606;2023-09-12T16:05:09;33.90;59.90
7502;DHT22;3792;47.740;7.606;2023-09-12T16:07:36;33.80;59.80
7502;DHT22;3792;47.740;7.606;2023-09-12T16:10:04;33.60;58.90
7502;DHT22;3792;47.740;7.606;2023-09-12T16:12:33;33.40;59.30